createdAt,value
2023-01-29T00:14:42.818Z,33.47
2023-01-29T00:34:42.963Z,33.47
2023-01-29T00:54:42.821Z,33.47
2023-01-29T01:14:42.835Z,33.47
2023-01-29T01:34:42.840Z,33.46
2023-01-29T01:54:42.843Z,33.47
2023-01-29T02:14:42.841Z,33.47
2023-01-29T02:34:42.715Z,33.46
2023-01-29T02:54:42.844Z,33.46
2023-01-29T03:14:42.860Z,33.46
2023-01-29T03:34:42.723Z,33.46
2023-01-29T03:54:42.864Z,33.46
2023-01-29T04:14:42.342Z,33.46
2023-01-29T04:34:42.885Z,33.46
2023-01-29T04:54:42.866Z,33.46
2023-01-29T05:14:42.885Z,33.46
2023-01-29T05:34:42.885Z,33.46
2023-01-29T05:54:42.884Z,33.46
2023-01-29T06:14:42.882Z,33.46
2023-01-29T06:34:42.887Z,33.46
2023-01-29T06:54:42.901Z,33.45
2023-01-29T07:14:42.774Z,33.45
2023-01-29T07:34:42.908Z,33.46
2023-01-29T07:54:42.769Z,33.45
2023-01-29T08:34:42.916Z,33.45
2023-01-29T08:54:42.912Z,33.45
2023-01-29T09:14:42.913Z,33.45
2023-01-29T09:34:42.932Z,33.45
2023-01-29T09:54:42.939Z,33.45
2023-01-29T10:14:42.940Z,33.45
2023-01-29T10:34:42.936Z,33.44
2023-01-29T10:54:42.967Z,33.45
2023-01-29T11:14:42.952Z,33.44
2023-01-29T11:34:42.815Z,33.44
2023-01-29T11:54:42.942Z,33.44
2023-01-29T12:14:43.019Z,33.44
2023-01-29T12:34:42.977Z,33.43
2023-01-29T12:54:42.961Z,33.43
2023-01-29T13:14:43.000Z,33.43
2023-01-29T13:34:42.960Z,33.43
2023-01-29T14:14:41.834Z,33.43
2023-01-29T14:34:42.978Z,33.43
2023-01-29T14:54:42.978Z,33.43
2023-01-29T15:14:42.977Z,33.43
2023-01-29T15:34:43.004Z,33.43
2023-01-29T15:54:41.872Z,33.43
2023-01-29T16:14:42.990Z,33.43
2023-01-29T16:34:42.868Z,33.42
2023-01-29T16:54:43.019Z,33.42
2023-01-29T17:34:43.005Z,33.43
2023-01-29T17:54:43.004Z,33.42
2023-01-29T18:14:43.003Z,33.41
2023-01-29T18:54:42.497Z,33.41
2023-01-29T19:34:43.027Z,33.41
2023-01-29T19:54:42.886Z,33.41
2023-01-29T20:14:43.028Z,33.41
2023-01-29T20:34:42.549Z,33.41
2023-01-29T21:34:42.519Z,33.4
2023-01-29T22:14:43.031Z,33.4
2023-01-29T22:54:42.523Z,33.39
2023-01-29T23:14:43.047Z,33.4
2023-01-29T23:34:43.042Z,33.39
2023-01-29T23:54:42.535Z,33.39
